»·PEaware :: N973LW KSBP-KSMX

N973LW :: KSBP-KSMX

FLIGHT INFORMATION

Flight Status: Arrived
Operator: Privately registered:
United States
More flights under this callsign
Pilot: Anonymous 26214 (26214)
Aircraft: CESSNA 172 SKYHAWK
(C172)
More flights by this aircraft type
Origin: KSBP San Luis Co Regl
United States
Destination: KSMX Santa Maria Pub/Capt Hancock
United States
More flights between these airports :: More routes between these airports
Route: +
File this flight plan on PilotEdge
Remarks: CAT4
Altitude:
(Current/Filed)
0ft
Speed:
(Current/Filed)
0kts
Departed: 20-Oct-19 12:32 PM
Arrived: 20-Oct-19 01:11 PM
Distance/Time
Traveled:
23nm/0:39
Distance/Time
To Go:
Arrived

Flight Plot

Page will automatically refresh every two minutes.


Map Options




Map Legend


Flown Route
Filed Route
Departure Airport
Arrival Airport
Navaid (VOR, NDB)
Fix

Horizontal Profiles

Position Reports

Time Latitude Longitude Heading Altitude Ground
Speed
20-Oct-19 12:17 35.237652 -120.638845 187 215ft 8kts
20-Oct-19 12:18 35.234703 -120.634469 125 215ft 21kts
20-Oct-19 12:19 35.233236 -120.631989 216 215ft 0kts
20-Oct-19 12:20 35.233236 -120.631989 216 215ft 0kts
20-Oct-19 12:21 35.233236 -120.631989 215 215ft 0kts
20-Oct-19 12:22 35.233236 -120.631989 216 215ft 0kts
20-Oct-19 12:23 35.233236 -120.631989 216 215ft 0kts
20-Oct-19 12:24 35.233236 -120.631989 216 215ft 0kts
20-Oct-19 12:25 35.233236 -120.631989 216 215ft 0kts
20-Oct-19 12:26 35.233236 -120.631989 216 215ft 0kts
20-Oct-19 12:27 35.233236 -120.631989 216 215ft 0kts
20-Oct-19 12:28 35.233236 -120.631989 216 215ft 0kts
20-Oct-19 12:29 35.233236 -120.631989 216 215ft 0kts
20-Oct-19 12:30 35.233026 -120.632352 241 215ft 6kts
20-Oct-19 12:31 35.236761 -120.640190 312 439ft 68kts
20-Oct-19 12:32 35.239696 -120.662185 203 1283ft 90kts
20-Oct-19 12:33 35.221685 -120.640154 123 1674ft 102kts
20-Oct-19 12:34 35.197045 -120.622965 153 2322ft 105kts
20-Oct-19 12:35 35.171292 -120.607445 147 3049ft 99kts
20-Oct-19 12:36 35.144442 -120.601905 178 3760ft 101kts
20-Oct-19 12:37 35.115373 -120.600459 181 4467ft 105kts
20-Oct-19 12:38 35.085848 -120.602287 182 4812ft 111kts
20-Oct-19 12:39 35.055129 -120.595654 137 4563ft 114kts
20-Oct-19 12:40 35.029675 -120.571048 135 4648ft 116kts
20-Oct-19 12:41 35.000985 -120.550836 139 4731ft 119kts
20-Oct-19 12:42 34.979378 -120.526243 49 4808ft 89kts
20-Oct-19 12:43 34.974488 -120.538158 159 4909ft 121kts
20-Oct-19 12:44 34.977832 -120.526776 303 4626ft 81kts
20-Oct-19 12:45 34.965187 -120.524078 33 4099ft 74kts
20-Oct-19 12:46 34.957983 -120.529753 131 3768ft 100kts
20-Oct-19 12:47 34.966973 -120.526993 307 3701ft 82kts
20-Oct-19 12:48 34.948811 -120.533302 123 3109ft 103kts
20-Oct-19 12:49 34.953514 -120.535583 238 2986ft 103kts
20-Oct-19 12:50 34.930358 -120.549965 274 2988ft 95kts
20-Oct-19 12:51 34.944025 -120.555842 61 3020ft 82kts
20-Oct-19 12:52 34.927228 -120.543745 246 3005ft 102kts
20-Oct-19 12:53 34.918975 -120.572790 327 2959ft 83kts
20-Oct-19 12:54 34.926039 -120.556197 136 2947ft 108kts
20-Oct-19 12:55 34.907743 -120.571637 302 3001ft 82kts
20-Oct-19 12:56 34.922569 -120.568300 80 3002ft 90kts
20-Oct-19 12:57 34.936615 -120.563822 344 3016ft 73kts
20-Oct-19 12:58 34.953385 -120.554515 339 3068ft 73kts
20-Oct-19 12:59 34.941798 -120.569925 130 3104ft 100kts
20-Oct-19 13:00 34.946895 -120.566328 247 3103ft 100kts
20-Oct-19 13:01 34.932915 -120.554352 21 2943ft 79kts
20-Oct-19 13:02 34.938717 -120.527559 87 2758ft 105kts
20-Oct-19 13:03 34.934880 -120.494579 92 2277ft 103kts
20-Oct-19 13:04 34.924047 -120.460629 122 1800ft 115kts
20-Oct-19 13:05 34.901129 -120.438544 143 1185ft 96kts
20-Oct-19 13:06 34.893327 -120.448705 347 751ft 94kts
20-Oct-19 13:07 34.903233 -120.472690 224 1275ft 102kts
20-Oct-19 13:08 34.882218 -120.460131 112 1378ft 84kts
20-Oct-19 13:09 34.885754 -120.440082 11 902ft 72kts
20-Oct-19 13:10 34.896076 -120.449550 315 264ft 17kts
20-Oct-19 13:11 34.897821 -120.450275 1 264ft 0kts
20-Oct-19 13:12 34.897911 -120.449510 137 264ft 18kts
20-Oct-19 13:13 34.897344 -120.446473 206 264ft 0kts
20-Oct-19 13:14 34.897344 -120.446473 207 264ft 0kts
20-Oct-19 13:15 34.897344 -120.446473 207 264ft 0kts
20-Oct-19 13:16 34.897344 -120.446473 207 264ft 0kts
20-Oct-19 13:17 34.897344 -120.446473 207 264ft 0kts
20-Oct-19 13:18 34.897344 -120.446473 207 264ft 0kts
20-Oct-19 13:19 34.897344 -120.446473 207 264ft 0kts
20-Oct-19 13:20 34.897344 -120.446473 207 264ft 0kts
20-Oct-19 13:21 34.897344 -120.446473 207 264ft 0kts
20-Oct-19 13:22 34.897344 -120.446473 207 264ft 0kts
20-Oct-19 13:23 34.897344 -120.446473 207 264ft 0kts
20-Oct-19 13:24 34.897344 -120.446473 207 264ft 0kts

Navigation Log

Ident Type
Flight plan parsing failed, navigation log unavailable